Time;durP1;ratioP1;P1;durP2;ratioP2;P2;SDS_P1;SDS_P2;PMS_P1;PMS_P2;Temp;Humidity;BMP_temperature;BMP_pressure;BME280_temperature;BME280_humidity;BME280_pressure;Samples;Min_cycle;Max_cycle;Signal;HPM_P1;HPM_P2
2022/11/25 00:01:25;;;;;;;16.73;7.60;;;;;;;;;;5058892;28;20183;-78
2022/11/25 00:03:53;;;;;;;10.83;6.73;;;;;;;;;;5086368;28;20318;-78
2022/11/25 00:06:20;;;;;;;13.40;7.37;;;;;;;;;;5090655;28;20627;-79
2022/11/25 00:08:49;;;;;;;17.40;8.03;;;;;;;;;;5075943;28;20191;-78
2022/11/25 00:11:16;;;;;;;11.20;6.47;;;;;;;;;;5085948;28;20204;-78
2022/11/25 00:13:43;;;;;;;13.33;6.50;;;;;;;;;;5079611;28;20851;-78
2022/11/25 00:16:10;;;;;;;10.93;6.20;;;;;;;;;;5083874;28;20696;-78
2022/11/25 00:18:37;;;;;;;11.50;6.00;;;;;;;;;;5075967;28;20254;-78
2022/11/25 00:21:05;;;;;;;10.07;5.20;;;;;;;;;;5084804;28;20187;-78
2022/11/25 00:23:31;;;;;;;12.23;6.00;;;;;;;;;;5086784;28;20180;-78
2022/11/25 00:25:57;;;;;;;11.23;5.97;;;;;;;;;;5089105;28;20218;-78
2022/11/25 00:28:23;;;;;;;10.73;5.47;;;;;;;;;;5092786;28;20222;-78
2022/11/25 00:30:50;;;;;;;9.20;4.70;;;;;;;;;;5069674;28;20185;-78
2022/11/25 00:33:17;;;;;;;13.80;6.20;;;;;;;;;;5101826;28;20196;-78
2022/11/25 00:35:43;;;;;;;11.63;6.93;;;;;;;;;;5077127;28;20198;-79
2022/11/25 00:38:11;;;;;;;11.23;6.67;;;;;;;;;;5076917;28;20208;-78
2022/11/25 00:40:37;;;;;;;15.97;7.37;;;;;;;;;;5079486;28;20209;-78
2022/11/25 00:45:48;;;;;;;11.30;6.87;;;;;;;;;;5097355;28;20204;-78
2022/11/25 00:48:14;;;;;;;12.90;7.30;;;;;;;;;;5058175;28;20185;-78
2022/11/25 00:50:42;;;;;;;12.53;6.83;;;;;;;;;;5072549;28;20248;-78
2022/11/25 00:53:08;;;;;;;9.90;6.20;;;;;;;;;;5102457;28;20215;-78
2022/11/25 00:56:11;;;;;;;11.30;5.93;;;;;;;;;;5088123;28;20215;-78
2022/11/25 00:58:20;;;;;;;14.90;8.07;;;;;;;;;;5088520;28;20195;-78
2022/11/25 01:00:47;;;;;;;12.77;7.87;;;;;;;;;;5068360;28;20586;-78
2022/11/25 01:03:13;;;;;;;18.70;8.50;;;;;;;;;;5087482;28;20204;-78
2022/11/25 01:05:39;;;;;;;13.63;7.97;;;;;;;;;;5090057;28;20293;-78
2022/11/25 01:08:05;;;;;;;13.40;8.10;;;;;;;;;;5088666;28;20176;-78
2022/11/25 01:10:31;;;;;;;13.07;7.80;;;;;;;;;;5089808;28;20249;-78
2022/11/25 01:12:59;;;;;;;16.90;9.70;;;;;;;;;;5070062;28;20184;-78
2022/11/25 01:15:25;;;;;;;14.60;8.67;;;;;;;;;;5088052;28;20568;-78
2022/11/25 01:17:51;;;;;;;15.07;8.23;;;;;;;;;;5097720;28;20697;-78
2022/11/25 01:20:17;;;;;;;13.70;8.07;;;;;;;;;;5062335;28;20212;-78
2022/11/25 01:22:43;;;;;;;14.53;7.17;;;;;;;;;;5070931;28;20166;-78
2022/11/25 01:25:09;;;;;;;13.70;9.07;;;;;;;;;;5071681;28;20192;-78
2022/11/25 01:27:41;;;;;;;15.47;9.43;;;;;;;;;;5088574;28;20204;-78
2022/11/25 01:30:08;;;;;;;14.67;8.97;;;;;;;;;;5070146;28;20184;-78
2022/11/25 01:32:34;;;;;;;14.53;9.50;;;;;;;;;;5068176;28;20977;-78
2022/11/25 01:35:00;;;;;;;15.70;9.77;;;;;;;;;;5063862;28;20185;-78
2022/11/25 01:37:27;;;;;;;19.13;9.90;;;;;;;;;;5087360;28;20272;-78
2022/11/25 01:39:53;;;;;;;17.03;9.20;;;;;;;;;;5071156;28;20239;-78
2022/11/25 01:42:19;;;;;;;15.93;8.77;;;;;;;;;;5089449;28;20164;-78
2022/11/25 01:45:05;;;;;;;13.83;8.53;;;;;;;;;;5071060;28;20637;-78
2022/11/25 01:47:32;;;;;;;19.63;10.40;;;;;;;;;;5068194;28;20588;-78
2022/11/25 01:50:03;;;;;;;15.87;9.13;;;;;;;;;;5086772;28;20200;-78
2022/11/25 01:52:42;;;;;;;12.50;8.67;;;;;;;;;;5094498;28;20689;-78
2022/11/25 01:55:19;;;;;;;14.10;9.40;;;;;;;;;;5089164;28;20180;-78
2022/11/25 01:57:51;;;;;;;13.73;9.07;;;;;;;;;;5090947;28;20199;-78
2022/11/25 02:00:17;;;;;;;13.80;9.57;;;;;;;;;;5065298;28;20213;-78
2022/11/25 02:02:44;;;;;;;16.97;10.03;;;;;;;;;;5066957;28;20854;-78
2022/11/25 02:05:13;;;;;;;25.73;11.63;;;;;;;;;;5072870;28;20226;-78
2022/11/25 02:07:41;;;;;;;18.53;10.73;;;;;;;;;;5075053;28;20199;-78
2022/11/25 02:10:10;;;;;;;15.37;10.53;;;;;;;;;;5074183;28;20181;-78
2022/11/25 02:12:37;;;;;;;20.30;10.80;;;;;;;;;;5080053;28;20189;-78
2022/11/25 02:15:04;;;;;;;16.30;10.27;;;;;;;;;;5083807;28;20260;-78
2022/11/25 02:17:30;;;;;;;25.57;11.37;;;;;;;;;;5088322;28;20265;-78
2022/11/25 02:20:03;;;;;;;17.03;9.70;;;;;;;;;;5054170;28;20204;-78
2022/11/25 02:22:52;;;;;;;16.00;9.13;;;;;;;;;;5057935;28;20179;-78
2022/11/25 02:25:20;;;;;;;16.13;7.80;;;;;;;;;;5071274;28;20191;-78
2022/11/25 02:27:47;;;;;;;13.70;7.33;;;;;;;;;;5075686;28;20200;-78
2022/11/25 02:30:15;;;;;;;12.17;6.43;;;;;;;;;;5070504;28;20207;-78
2022/11/25 02:32:42;;;;;;;18.73;9.37;;;;;;;;;;5071204;28;20263;-78
2022/11/25 02:35:41;;;;;;;17.40;8.03;;;;;;;;;;5067436;28;20178;-78
2022/11/25 02:38:20;;;;;;;12.50;6.07;;;;;;;;;;5027640;28;20212;-78
2022/11/25 02:40:52;;;;;;;14.47;7.90;;;;;;;;;;5067851;28;20719;-78
2022/11/25 02:43:19;;;;;;;9.97;5.77;;;;;;;;;;5075756;28;20584;-78
2022/11/25 02:45:45;;;;;;;9.40;5.53;;;;;;;;;;5086647;28;20722;-78
2022/11/25 02:48:11;;;;;;;8.93;4.50;;;;;;;;;;5081333;28;20177;-78
2022/11/25 02:50:37;;;;;;;11.37;4.77;;;;;;;;;;5068619;28;20551;-78
2022/11/25 02:53:03;;;;;;;11.63;5.33;;;;;;;;;;5078916;28;20178;-78
2022/11/25 02:55:29;;;;;;;11.03;5.30;;;;;;;;;;5094123;28;20583;-78
2022/11/25 02:57:56;;;;;;;9.40;4.50;;;;;;;;;;5065035;28;20188;-78
2022/11/25 03:00:24;;;;;;;13.23;4.90;;;;;;;;;;5067602;28;20240;-78
2022/11/25 03:02:53;;;;;;;10.23;4.30;;;;;;;;;;5078717;28;20181;-78
2022/11/25 03:05:21;;;;;;;9.93;4.60;;;;;;;;;;5069148;28;20711;-78
2022/11/25 03:07:47;;;;;;;12.50;6.70;;;;;;;;;;5061623;28;20192;-78
2022/11/25 03:10:15;;;;;;;12.40;5.60;;;;;;;;;;5073536;28;20185;-78
2022/11/25 03:12:42;;;;;;;13.90;6.80;;;;;;;;;;5074230;28;20192;-78
2022/11/25 03:15:09;;;;;;;11.33;5.53;;;;;;;;;;5076055;28;20646;-78
2022/11/25 03:17:35;;;;;;;11.63;4.17;;;;;;;;;;5059257;28;20212;-78
2022/11/25 03:20:01;;;;;;;11.03;4.33;;;;;;;;;;5067962;28;20231;-78
2022/11/25 03:22:28;;;;;;;10.73;4.43;;;;;;;;;;5072576;28;20172;-78
2022/11/25 03:24:54;;;;;;;10.40;4.00;;;;;;;;;;5089380;28;20172;-78
2022/11/25 03:27:20;;;;;;;10.13;3.83;;;;;;;;;;5071114;28;20240;-78
2022/11/25 03:29:46;;;;;;;7.67;3.97;;;;;;;;;;5064319;28;20181;-78
2022/11/25 03:32:12;;;;;;;10.53;4.07;;;;;;;;;;5073578;28;20193;-78
2022/11/25 03:34:39;;;;;;;9.83;4.30;;;;;;;;;;5062744;28;20176;-78
2022/11/25 03:37:06;;;;;;;9.57;4.23;;;;;;;;;;5077575;28;20230;-78
2022/11/25 03:39:32;;;;;;;7.53;4.20;;;;;;;;;;5056810;28;20905;-78
2022/11/25 03:41:59;;;;;;;7.80;3.83;;;;;;;;;;5064509;28;20260;-78
2022/11/25 03:44:25;;;;;;;10.00;3.93;;;;;;;;;;5080032;28;20209;-78
2022/11/25 03:46:52;;;;;;;9.67;4.30;;;;;;;;;;5070510;28;20289;-78
2022/11/25 03:49:18;;;;;;;8.43;3.97;;;;;;;;;;5079387;28;20189;-78
2022/11/25 03:51:44;;;;;;;11.13;4.80;;;;;;;;;;5067775;28;20188;-78
2022/11/25 03:54:11;;;;;;;9.23;4.37;;;;;;;;;;5059997;28;20677;-78
2022/11/25 03:56:55;;;;;;;10.20;4.30;;;;;;;;;;5077298;28;20600;-78
2022/11/25 03:59:22;;;;;;;8.33;4.07;;;;;;;;;;5082473;28;20204;-78
2022/11/25 04:01:49;;;;;;;10.63;4.10;;;;;;;;;;5057812;28;20196;-78
2022/11/25 04:04:15;;;;;;;8.70;3.77;;;;;;;;;;5079305;28;20183;-78
2022/11/25 04:06:42;;;;;;;9.10;4.10;;;;;;;;;;5078882;28;20204;-78
2022/11/25 04:09:10;;;;;;;11.93;4.33;;;;;;;;;;5060634;28;20186;-78
2022/11/25 04:14:23;;;;;;;6.03;3.40;;;;;;;;;;5070533;28;20257;-78
2022/11/25 04:16:49;;;;;;;9.90;4.27;;;;;;;;;;5067679;28;20250;-78
2022/11/25 04:19:15;;;;;;;9.23;4.03;;;;;;;;;;5068933;28;20216;-78
2022/11/25 04:21:42;;;;;;;9.93;4.33;;;;;;;;;;5071317;28;20305;-78
2022/11/25 04:24:09;;;;;;;8.50;4.17;;;;;;;;;;5045214;28;20592;-78
2022/11/25 04:26:36;;;;;;;9.80;4.00;;;;;;;;;;5073742;28;20217;-78
2022/11/25 04:29:02;;;;;;;14.73;6.37;;;;;;;;;;5086980;28;20188;-78
2022/11/25 04:31:29;;;;;;;10.63;4.90;;;;;;;;;;5090496;28;20177;-78
2022/11/25 04:33:55;;;;;;;12.30;5.00;;;;;;;;;;5056550;28;20237;-78
2022/11/25 04:36:23;;;;;;;15.27;5.97;;;;;;;;;;5069626;28;20196;-78
2022/11/25 04:38:49;;;;;;;11.77;5.30;;;;;;;;;;5084725;28;20202;-78
2022/11/25 04:41:15;;;;;;;7.53;4.17;;;;;;;;;;5072210;28;20165;-78
2022/11/25 04:43:44;;;;;;;7.70;4.13;;;;;;;;;;5065892;28;20181;-78
2022/11/25 04:46:16;;;;;;;11.20;4.50;;;;;;;;;;5079512;28;20241;-78
2022/11/25 04:48:46;;;;;;;8.23;4.57;;;;;;;;;;5077358;28;20187;-78
2022/11/25 04:51:14;;;;;;;8.43;4.33;;;;;;;;;;5069464;28;20185;-78
2022/11/25 04:53:41;;;;;;;9.43;4.20;;;;;;;;;;5064655;28;20181;-78
2022/11/25 04:56:15;;;;;;;9.70;4.20;;;;;;;;;;5067707;28;20391;-78
2022/11/25 05:01:28;;;;;;;8.97;4.50;;;;;;;;;;5086779;28;20179;-78
2022/11/25 05:04:02;;;;;;;10.30;4.17;;;;;;;;;;5072141;28;20202;-78
2022/11/25 05:06:28;;;;;;;15.20;5.10;;;;;;;;;;5057507;28;20231;-77
2022/11/25 05:08:55;;;;;;;11.47;5.30;;;;;;;;;;5071205;28;20811;-78
2022/11/25 05:11:23;;;;;;;8.80;4.67;;;;;;;;;;5067346;28;20196;-78
2022/11/25 05:13:50;;;;;;;9.97;5.10;;;;;;;;;;5062087;28;20203;-78
2022/11/25 05:16:16;;;;;;;9.53;5.03;;;;;;;;;;5091680;28;20737;-78
2022/11/25 05:18:43;;;;;;;10.37;4.87;;;;;;;;;;5083632;28;20185;-78
2022/11/25 05:21:09;;;;;;;8.90;4.63;;;;;;;;;;5081779;28;20195;-78
2022/11/25 05:23:40;;;;;;;9.27;4.97;;;;;;;;;;5069435;28;20211;-78
2022/11/25 05:26:06;;;;;;;10.27;5.33;;;;;;;;;;5074536;28;20216;-78
2022/11/25 05:28:48;;;;;;;11.27;5.57;;;;;;;;;;5088788;28;20207;-78
2022/11/25 05:31:14;;;;;;;10.27;5.67;;;;;;;;;;5066524;28;20653;-78
2022/11/25 05:33:40;;;;;;;10.30;5.83;;;;;;;;;;5044522;28;20180;-78
2022/11/25 05:36:09;;;;;;;14.57;7.63;;;;;;;;;;5053041;28;20208;-78
2022/11/25 05:38:42;;;;;;;15.40;8.00;;;;;;;;;;5069707;28;20276;-78
2022/11/25 05:41:10;;;;;;;11.70;6.30;;;;;;;;;;5061892;28;20195;-80
2022/11/25 05:43:38;;;;;;;10.60;6.23;;;;;;;;;;5070518;28;20606;-79
2022/11/25 05:46:08;;;;;;;11.00;5.90;;;;;;;;;;5069098;28;20797;-74
2022/11/25 05:48:37;;;;;;;13.03;5.33;;;;;;;;;;5061904;28;20188;-76
2022/11/25 05:51:05;;;;;;;8.63;5.00;;;;;;;;;;5069763;28;20181;-70
2022/11/25 05:53:32;;;;;;;10.87;5.50;;;;;;;;;;5067469;28;20672;-71
2022/11/25 05:56:01;;;;;;;10.47;5.40;;;;;;;;;;5066305;28;20290;-75
2022/11/25 05:58:50;;;;;;;11.50;5.37;;;;;;;;;;5087561;28;20184;-73
2022/11/25 06:01:16;;;;;;;10.57;5.47;;;;;;;;;;5072774;28;20516;-74
2022/11/25 06:03:44;;;;;;;8.10;4.90;;;;;;;;;;5069654;28;20181;-75
2022/11/25 06:06:10;;;;;;;8.63;4.90;;;;;;;;;;5073600;28;20197;-74
2022/11/25 06:08:38;;;;;;;8.10;5.20;;;;;;;;;;5090215;28;20169;-74
2022/11/25 06:11:09;;;;;;;10.40;6.10;;;;;;;;;;5075155;28;20196;-74
2022/11/25 06:13:36;;;;;;;13.98;6.68;;;;;;;;;;5069790;28;20421;-74
2022/11/25 06:16:09;;;;;;;12.40;6.43;;;;;;;;;;5089276;28;20200;-74
2022/11/25 06:18:36;;;;;;;13.30;6.60;;;;;;;;;;5087647;28;20203;-74
2022/11/25 06:21:06;;;;;;;15.30;7.88;;;;;;;;;;5067744;28;20422;-74
2022/11/25 06:23:32;;;;;;;12.53;6.67;;;;;;;;;;5075874;28;20168;-74
2022/11/25 06:26:18;;;;;;;14.47;7.73;;;;;;;;;;5072707;28;20212;-74
2022/11/25 06:28:45;;;;;;;17.43;9.93;;;;;;;;;;5064393;28;20822;-74
2022/11/25 06:31:16;;;;;;;15.90;9.50;;;;;;;;;;5070974;28;20491;-74
2022/11/25 06:33:53;;;;;;;12.17;7.40;;;;;;;;;;5073045;28;20406;-79
2022/11/25 06:36:20;;;;;;;11.63;7.10;;;;;;;;;;5059069;28;20510;-74
2022/11/25 06:38:47;;;;;;;10.47;5.97;;;;;;;;;;5072037;28;20177;-73
2022/11/25 06:41:14;;;;;;;11.10;5.82;;;;;;;;;;5088705;28;20466;-73
2022/11/25 06:43:40;;;;;;;8.77;4.80;;;;;;;;;;5089269;28;20260;-73
2022/11/25 06:46:17;;;;;;;11.27;4.73;;;;;;;;;;5090189;28;20667;-73
2022/11/25 06:48:43;;;;;;;8.60;4.50;;;;;;;;;;5090936;28;20180;-73
2022/11/25 06:51:13;;;;;;;10.10;5.40;;;;;;;;;;5091378;28;20187;-73
2022/11/25 06:53:40;;;;;;;11.63;6.23;;;;;;;;;;5073577;28;20196;-73
2022/11/25 06:56:08;;;;;;;14.87;7.73;;;;;;;;;;5088225;28;20200;-73
2022/11/25 06:58:35;;;;;;;14.77;6.90;;;;;;;;;;5089404;28;20192;-73
2022/11/25 07:01:03;;;;;;;12.63;6.67;;;;;;;;;;5089022;28;20212;-73
2022/11/25 07:03:29;;;;;;;13.23;6.60;;;;;;;;;;5088752;28;20185;-73
2022/11/25 07:05:57;;;;;;;9.83;6.37;;;;;;;;;;5089573;28;20196;-73
2022/11/25 07:08:23;;;;;;;12.77;5.93;;;;;;;;;;5091522;28;20215;-73
2022/11/25 07:10:50;;;;;;;9.77;5.90;;;;;;;;;;5088260;28;20301;-73
2022/11/25 07:13:16;;;;;;;10.57;5.60;;;;;;;;;;5089495;28;20568;-73
2022/11/25 07:15:42;;;;;;;10.67;5.57;;;;;;;;;;5087877;28;20694;-73
2022/11/25 07:18:09;;;;;;;11.57;5.80;;;;;;;;;;5091029;28;20173;-73
2022/11/25 07:20:35;;;;;;;11.60;6.17;;;;;;;;;;5092677;28;20247;-74
2022/11/25 07:23:01;;;;;;;9.40;5.50;;;;;;;;;;5089789;28;20176;-73
2022/11/25 07:25:28;;;;;;;9.53;5.90;;;;;;;;;;5072903;28;20245;-74
2022/11/25 07:27:54;;;;;;;9.33;5.87;;;;;;;;;;5072389;28;20202;-73
2022/11/25 07:30:20;;;;;;;13.17;6.20;;;;;;;;;;5090832;28;20173;-74
2022/11/25 07:32:47;;;;;;;22.00;9.60;;;;;;;;;;5089599;28;20176;-73
2022/11/25 07:35:13;;;;;;;11.37;7.00;;;;;;;;;;5091518;28;20706;-74
2022/11/25 07:37:39;;;;;;;16.90;8.70;;;;;;;;;;5089538;28;20359;-73
2022/11/25 07:40:05;;;;;;;14.03;8.03;;;;;;;;;;5091518;28;20196;-73
2022/11/25 07:42:32;;;;;;;14.63;7.73;;;;;;;;;;5085188;28;20201;-73
2022/11/25 07:44:59;;;;;;;14.27;7.03;;;;;;;;;;5088437;28;20640;-74
2022/11/25 07:47:48;;;;;;;18.53;7.30;;;;;;;;;;5064001;28;20209;-74
2022/11/25 07:50:14;;;;;;;15.80;7.57;;;;;;;;;;5088906;28;20173;-74
2022/11/25 07:52:40;;;;;;;10.03;5.60;;;;;;;;;;5084454;28;20174;-74
2022/11/25 07:55:07;;;;;;;11.17;5.03;;;;;;;;;;5087978;28;20177;-74
2022/11/25 07:57:33;;;;;;;10.80;4.97;;;;;;;;;;5089999;28;20287;-73
2022/11/25 08:00:00;;;;;;;12.00;5.50;;;;;;;;;;5071665;28;20216;-74
2022/11/25 08:02:26;;;;;;;7.50;4.80;;;;;;;;;;5085618;28;20176;-73
2022/11/25 08:04:52;;;;;;;9.13;5.03;;;;;;;;;;5090508;28;20189;-74
2022/11/25 08:07:18;;;;;;;6.87;4.20;;;;;;;;;;5085370;28;20231;-74
2022/11/25 08:09:44;;;;;;;9.23;4.93;;;;;;;;;;5089289;28;20549;-73
2022/11/25 08:12:10;;;;;;;9.03;4.30;;;;;;;;;;5084032;28;20191;-74
2022/11/25 08:14:36;;;;;;;11.20;4.77;;;;;;;;;;5083655;28;20192;-73
2022/11/25 08:17:04;;;;;;;7.43;4.30;;;;;;;;;;5081386;28;20200;-73
2022/11/25 08:19:31;;;;;;;7.73;4.20;;;;;;;;;;5085310;28;20297;-74
2022/11/25 08:21:57;;;;;;;8.43;4.63;;;;;;;;;;5069150;28;20180;-74
2022/11/25 08:24:23;;;;;;;9.63;4.43;;;;;;;;;;5082741;28;20245;-73
2022/11/25 08:26:50;;;;;;;8.60;4.40;;;;;;;;;;5082338;28;20212;-73
2022/11/25 08:29:17;;;;;;;7.77;4.20;;;;;;;;;;5085427;28;20205;-73
2022/11/25 08:31:44;;;;;;;9.93;4.33;;;;;;;;;;5075274;28;20197;-74
2022/11/25 08:34:16;;;;;;;7.03;3.80;;;;;;;;;;5081933;28;20187;-73
2022/11/25 08:36:42;;;;;;;7.77;3.70;;;;;;;;;;5061324;28;20287;-74
2022/11/25 08:39:08;;;;;;;6.60;3.60;;;;;;;;;;5081608;28;20869;-74
2022/11/25 08:41:43;;;;;;;7.77;3.50;;;;;;;;;;5082675;28;20749;-74
2022/11/25 08:44:12;;;;;;;6.13;3.50;;;;;;;;;;5090168;28;20183;-74
2022/11/25 08:46:38;;;;;;;7.10;3.23;;;;;;;;;;5083308;28;20213;-74
2022/11/25 08:49:05;;;;;;;8.33;3.20;;;;;;;;;;5093213;28;20180;-73
2022/11/25 08:51:32;;;;;;;7.00;2.80;;;;;;;;;;5087325;28;20672;-74
2022/11/25 08:53:58;;;;;;;7.67;2.73;;;;;;;;;;5095159;28;20264;-74
2022/11/25 08:56:25;;;;;;;6.73;2.47;;;;;;;;;;5085095;28;20196;-74
2022/11/25 08:58:51;;;;;;;4.90;3.00;;;;;;;;;;5095920;28;20259;-74
2022/11/25 09:01:18;;;;;;;7.00;2.73;;;;;;;;;;5105962;28;20230;-74
2022/11/25 09:03:46;;;;;;;6.70;2.70;;;;;;;;;;5081468;28;20652;-74
2022/11/25 09:06:13;;;;;;;6.80;3.00;;;;;;;;;;5093832;28;20184;-74
2022/11/25 09:08:40;;;;;;;8.80;3.00;;;;;;;;;;5079596;28;20188;-74
2022/11/25 09:11:06;;;;;;;6.03;3.33;;;;;;;;;;5082589;28;20180;-74
2022/11/25 09:13:32;;;;;;;6.03;3.20;;;;;;;;;;5075886;28;20188;-73
2022/11/25 09:16:00;;;;;;;6.80;3.23;;;;;;;;;;5095672;28;20206;-74
2022/11/25 09:18:29;;;;;;;8.80;3.60;;;;;;;;;;5065172;28;20177;-74
2022/11/25 09:20:55;;;;;;;8.10;3.93;;;;;;;;;;5066202;28;20298;-74
2022/11/25 09:23:22;;;;;;;10.30;4.83;;;;;;;;;;5080556;28;20177;-74
2022/11/25 09:25:52;;;;;;;8.77;4.30;;;;;;;;;;5080741;28;20227;-74
2022/11/25 09:28:18;;;;;;;8.63;4.20;;;;;;;;;;5085215;28;20180;-74
2022/11/25 09:30:44;;;;;;;11.27;3.87;;;;;;;;;;5074999;28;20206;-74
2022/11/25 09:33:11;;;;;;;8.30;3.80;;;;;;;;;;5090946;28;20261;-74
2022/11/25 09:35:37;;;;;;;8.27;3.40;;;;;;;;;;5091283;28;20246;-74
2022/11/25 09:38:03;;;;;;;5.97;3.33;;;;;;;;;;5085274;28;20187;-74
2022/11/25 09:40:34;;;;;;;7.90;2.97;;;;;;;;;;5080985;28;20207;-74
2022/11/25 09:48:46;;;;;;;7.67;3.60;;;;;;;;;;5078736;28;20691;-74
2022/11/25 09:51:18;;;;;;;12.70;4.00;;;;;;;;;;5089139;28;20557;-74
2022/11/25 09:53:47;;;;;;;6.53;3.57;;;;;;;;;;5085365;28;20241;-74
2022/11/25 09:56:19;;;;;;;7.67;3.57;;;;;;;;;;5086361;28;20211;-73
2022/11/25 09:58:51;;;;;;;6.27;3.37;;;;;;;;;;5089259;28;20243;-74
2022/11/25 10:01:21;;;;;;;5.60;3.00;;;;;;;;;;5090038;28;20302;-74
2022/11/25 10:03:49;;;;;;;8.37;3.20;;;;;;;;;;5074849;28;20593;-74
2022/11/25 10:06:18;;;;;;;6.73;3.43;;;;;;;;;;5087236;28;20302;-74
2022/11/25 10:08:46;;;;;;;7.33;3.80;;;;;;;;;;5081982;28;20921;-74
2022/11/25 10:11:34;;;;;;;7.27;3.87;;;;;;;;;;5094768;28;20180;-74
2022/11/25 10:14:05;;;;;;;8.53;3.70;;;;;;;;;;5081782;28;20176;-74
2022/11/25 10:16:35;;;;;;;7.90;3.33;;;;;;;;;;5092239;28;20199;-74
2022/11/25 10:19:05;;;;;;;9.87;3.83;;;;;;;;;;5085576;28;20213;-74
2022/11/25 10:21:31;;;;;;;6.90;3.53;;;;;;;;;;5089903;28;20267;-74
2022/11/25 10:23:57;;;;;;;8.93;4.23;;;;;;;;;;5090821;28;20184;-74
2022/11/25 10:26:28;;;;;;;5.70;3.70;;;;;;;;;;5091790;28;20923;-74
2022/11/25 10:28:57;;;;;;;9.53;4.43;;;;;;;;;;5074897;28;20182;-74
2022/11/25 10:31:27;;;;;;;7.40;3.97;;;;;;;;;;5086283;28;20188;-74
2022/11/25 10:33:56;;;;;;;10.43;5.10;;;;;;;;;;5080963;28;20181;-74
2022/11/25 10:36:36;;;;;;;8.07;4.43;;;;;;;;;;5084552;28;20203;-74
2022/11/25 10:39:10;;;;;;;6.73;4.03;;;;;;;;;;5082198;28;20804;-74
2022/11/25 10:41:42;;;;;;;6.70;3.63;;;;;;;;;;5074597;28;20233;-74
2022/11/25 10:44:15;;;;;;;8.43;4.10;;;;;;;;;;5085620;28;20592;-74
2022/11/25 10:46:41;;;;;;;8.50;3.70;;;;;;;;;;5075163;28;20311;-74
2022/11/25 10:49:12;;;;;;;7.10;4.10;;;;;;;;;;5088727;28;20172;-77
2022/11/25 10:51:44;;;;;;;7.73;4.10;;;;;;;;;;5076646;28;20224;-74
2022/11/25 10:54:10;;;;;;;6.80;4.10;;;;;;;;;;5083996;28;20185;-73
2022/11/25 10:56:44;;;;;;;5.50;3.87;;;;;;;;;;5060732;28;20339;-73
2022/11/25 10:59:21;;;;;;;7.53;3.73;;;;;;;;;;5080187;28;20613;-73
2022/11/25 11:01:47;;;;;;;5.73;3.57;;;;;;;;;;5083880;28;20176;-74
2022/11/25 11:04:14;;;;;;;8.27;3.73;;;;;;;;;;5068160;28;20556;-74
2022/11/25 11:06:44;;;;;;;8.23;3.87;;;;;;;;;;5086605;28;20205;-74
2022/11/25 11:09:29;;;;;;;7.80;3.63;;;;;;;;;;5083056;28;20191;-73
2022/11/25 11:11:55;;;;;;;8.70;4.40;;;;;;;;;;5085261;28;20180;-73
2022/11/25 11:14:21;;;;;;;8.03;4.37;;;;;;;;;;5085190;28;20173;-74
2022/11/25 11:16:52;;;;;;;6.23;3.90;;;;;;;;;;5081013;28;20196;-74
2022/11/25 11:19:23;;;;;;;8.37;4.60;;;;;;;;;;5082323;28;20222;-73
2022/11/25 11:21:50;;;;;;;9.77;4.77;;;;;;;;;;5083017;28;20195;-73
2022/11/25 11:24:36;;;;;;;7.53;4.10;;;;;;;;;;5083849;28;20183;-74
2022/11/25 11:27:03;;;;;;;9.97;4.67;;;;;;;;;;5067823;28;20944;-74
2022/11/25 11:29:29;;;;;;;8.97;4.47;;;;;;;;;;5083672;28;20173;-74
2022/11/25 11:31:59;;;;;;;9.23;4.23;;;;;;;;;;5085540;28;20733;-74
2022/11/25 11:34:28;;;;;;;7.10;3.93;;;;;;;;;;5085600;28;20180;-74
2022/11/25 11:37:01;;;;;;;7.77;4.03;;;;;;;;;;5085199;28;20231;-72
2022/11/25 11:39:30;;;;;;;10.83;5.03;;;;;;;;;;5083553;28;20722;-74
2022/11/25 11:42:07;;;;;;;8.97;4.40;;;;;;;;;;5083947;28;20268;-73
2022/11/25 11:45:00;;;;;;;7.83;4.43;;;;;;;;;;5066519;28;20723;-73
2022/11/25 11:47:46;;;;;;;6.90;4.23;;;;;;;;;;5085896;28;20575;-72
2022/11/25 11:50:31;;;;;;;7.53;4.20;;;;;;;;;;5082740;28;20195;-74
2022/11/25 11:53:21;;;;;;;11.87;6.43;;;;;;;;;;5085661;28;20184;-74
2022/11/25 11:55:58;;;;;;;9.50;4.60;;;;;;;;;;5087249;28;20188;-74
2022/11/25 11:58:25;;;;;;;11.07;4.33;;;;;;;;;;5086583;28;20180;-74
2022/11/25 12:00:57;;;;;;;7.60;3.87;;;;;;;;;;5086551;28;20213;-75
2022/11/25 12:03:25;;;;;;;7.73;3.90;;;;;;;;;;5096122;28;20165;-76
2022/11/25 12:05:54;;;;;;;6.93;4.20;;;;;;;;;;5070916;28;20173;-77
2022/11/25 12:08:29;;;;;;;9.83;4.97;;;;;;;;;;5079700;28;20508;-77
2022/11/25 12:11:02;;;;;;;10.40;4.90;;;;;;;;;;5069390;28;20236;-77
2022/11/25 12:13:47;;;;;;;7.80;5.10;;;;;;;;;;5072165;28;20682;-78
2022/11/25 12:16:25;;;;;;;7.20;4.97;;;;;;;;;;5057919;28;20208;-77
2022/11/25 12:18:54;;;;;;;7.77;4.87;;;;;;;;;;5075156;28;20203;-77
2022/11/25 12:21:29;;;;;;;10.90;4.93;;;;;;;;;;5090463;28;20212;-77
2022/11/25 12:24:03;;;;;;;9.50;4.70;;;;;;;;;;5088425;28;20188;-77
2022/11/25 12:26:34;;;;;;;8.03;4.90;;;;;;;;;;5091578;28;20982;-77
2022/11/25 12:29:04;;;;;;;10.73;4.80;;;;;;;;;;5089595;28;20260;-77
2022/11/25 12:31:36;;;;;;;9.77;4.87;;;;;;;;;;5097645;28;20187;-77
2022/11/25 12:34:09;;;;;;;9.33;4.53;;;;;;;;;;5089761;28;20220;-77
2022/11/25 12:36:36;;;;;;;9.67;4.90;;;;;;;;;;5071463;28;20215;-77
2022/11/25 12:39:02;;;;;;;8.23;4.47;;;;;;;;;;5089950;28;20234;-77
2022/11/25 12:41:47;;;;;;;7.00;4.67;;;;;;;;;;5094488;28;20181;-77
2022/11/25 12:44:19;;;;;;;8.63;4.73;;;;;;;;;;5101648;28;20207;-77
2022/11/25 12:46:49;;;;;;;10.30;5.47;;;;;;;;;;5085940;28;20626;-78
2022/11/25 12:49:16;;;;;;;9.27;5.07;;;;;;;;;;5081598;28;20183;-77
2022/11/25 12:51:54;;;;;;;9.70;4.93;;;;;;;;;;5071319;28;20179;-77
2022/11/25 12:54:36;;;;;;;11.13;5.10;;;;;;;;;;5093303;28;20200;-77
2022/11/25 12:57:13;;;;;;;8.70;4.73;;;;;;;;;;5089514;28;20204;-77
2022/11/25 12:59:58;;;;;;;7.83;5.33;;;;;;;;;;5090002;28;20290;-77
2022/11/25 13:02:35;;;;;;;10.00;5.47;;;;;;;;;;5089408;28;20256;-77
2022/11/25 13:05:21;;;;;;;10.67;5.43;;;;;;;;;;5091481;28;20172;-77
2022/11/25 13:07:48;;;;;;;8.90;5.33;;;;;;;;;;5092818;28;20284;-77
2022/11/25 13:10:19;;;;;;;10.90;4.63;;;;;;;;;;5099837;28;20260;-77
2022/11/25 13:13:01;;;;;;;7.17;4.77;;;;;;;;;;5088005;28;20305;-77
2022/11/25 13:15:27;;;;;;;11.10;5.70;;;;;;;;;;5091188;28;20222;-77
2022/11/25 13:18:01;;;;;;;9.27;5.13;;;;;;;;;;5074532;28;20224;-77
2022/11/25 13:20:27;;;;;;;10.23;5.17;;;;;;;;;;5091672;28;20194;-78
2022/11/25 13:23:06;;;;;;;9.00;5.07;;;;;;;;;;5087306;28;20862;-77
2022/11/25 13:25:33;;;;;;;8.23;5.20;;;;;;;;;;5091435;28;20224;-77
2022/11/25 13:28:00;;;;;;;10.10;5.47;;;;;;;;;;5075540;28;20177;-77
2022/11/25 13:30:33;;;;;;;10.23;5.37;;;;;;;;;;5078706;28;20177;-77
2022/11/25 13:33:11;;;;;;;8.23;5.20;;;;;;;;;;5077941;28;20208;-77
2022/11/25 13:35:46;;;;;;;8.30;5.10;;;;;;;;;;5090087;28;20676;-77
2022/11/25 13:38:31;;;;;;;9.83;4.93;;;;;;;;;;5091544;28;20185;-77
2022/11/25 13:40:58;;;;;;;7.63;5.17;;;;;;;;;;5095450;28;20235;-77
2022/11/25 13:43:26;;;;;;;12.33;5.40;;;;;;;;;;5093671;28;20168;-77
2022/11/25 13:45:53;;;;;;;10.80;5.37;;;;;;;;;;5085930;28;20176;-78
2022/11/25 13:48:27;;;;;;;8.00;5.00;;;;;;;;;;5088397;28;20543;-82
2022/11/25 13:51:13;;;;;;;7.90;5.17;;;;;;;;;;5076031;28;20215;-79
2022/11/25 13:53:40;;;;;;;7.97;5.27;;;;;;;;;;5079326;28;20278;-78
2022/11/25 13:56:27;;;;;;;8.70;5.30;;;;;;;;;;5099466;28;20201;-83
2022/11/25 13:59:14;;;;;;;11.50;5.30;;;;;;;;;;5095112;28;20181;-81
2022/11/25 14:01:51;;;;;;;9.47;5.27;;;;;;;;;;5084304;28;20189;-76
2022/11/25 14:04:22;;;;;;;8.60;5.07;;;;;;;;;;5095024;28;20237;-81
2022/11/25 14:06:51;;;;;;;8.80;5.27;;;;;;;;;;5065345;28;20201;-81
2022/11/25 14:09:35;;;;;;;12.00;5.97;;;;;;;;;;5070800;28;20191;-79
2022/11/25 14:12:27;;;;;;;10.47;5.37;;;;;;;;;;5068456;28;20185;-76
2022/11/25 14:15:12;;;;;;;8.27;5.10;;;;;;;;;;5093554;28;20181;-77
2022/11/25 14:17:57;;;;;;;7.50;5.10;;;;;;;;;;5076490;28;20209;-80
2022/11/25 14:20:44;;;;;;;9.23;5.70;;;;;;;;;;5074794;28;20200;-76
2022/11/25 14:23:33;;;;;;;10.03;6.67;;;;;;;;;;5083440;28;20200;-77
2022/11/25 14:26:10;;;;;;;10.57;6.73;;;;;;;;;;5086658;28;20215;-76
2022/11/25 14:28:43;;;;;;;9.03;5.63;;;;;;;;;;5067145;28;20203;-76
2022/11/25 14:31:18;;;;;;;9.73;5.67;;;;;;;;;;5060856;28;20573;-76
2022/11/25 14:33:56;;;;;;;10.07;6.20;;;;;;;;;;5080480;28;20188;-77
2022/11/25 14:36:26;;;;;;;15.17;10.17;;;;;;;;;;5091817;28;20239;-76
2022/11/25 14:38:54;;;;;;;40.23;34.77;;;;;;;;;;5093311;28;20187;-76
2022/11/25 14:41:27;;;;;;;12.77;9.07;;;;;;;;;;5091082;28;20203;-76
2022/11/25 14:43:57;;;;;;;14.03;10.07;;;;;;;;;;5082609;28;20173;-76
2022/11/25 14:46:24;;;;;;;11.20;7.27;;;;;;;;;;5083433;28;20200;-77
2022/11/25 14:48:54;;;;;;;14.60;11.33;;;;;;;;;;5083403;28;20178;-76
2022/11/25 14:51:21;;;;;;;13.17;8.63;;;;;;;;;;5083393;28;20643;-76
2022/11/25 14:53:49;;;;;;;11.97;6.70;;;;;;;;;;5066958;28;20173;-76
2022/11/25 14:56:21;;;;;;;11.40;5.70;;;;;;;;;;5080171;28;20196;-76
2022/11/25 14:58:48;;;;;;;7.77;4.90;;;;;;;;;;5088422;28;20177;-76
2022/11/25 15:01:21;;;;;;;9.07;5.10;;;;;;;;;;5083416;28;20233;-76
2022/11/25 15:03:48;;;;;;;10.93;5.40;;;;;;;;;;5064696;28;20586;-76
2022/11/25 15:06:14;;;;;;;10.33;5.10;;;;;;;;;;5083202;28;20203;-76